sensor_id;sensor_type;location;lat;lon;timestamp;pressure;altitude;pressure_sealevel;temperature;humidity
29733;BME280;16643;43.158;25.302;2023-05-23T00:01:39;97797.59;;;14.17;100.00
29733;BME280;16643;43.158;25.302;2023-05-23T00:04:07;97796.06;;;14.13;100.00
29733;BME280;16643;43.158;25.302;2023-05-23T00:06:33;97782.06;;;13.97;100.00
29733;BME280;16643;43.158;25.302;2023-05-23T00:09:01;97796.66;;;14.01;100.00
29733;BME280;16643;43.158;25.302;2023-05-23T00:11:27;97797.44;;;14.03;100.00
29733;BME280;16643;43.158;25.302;2023-05-23T00:13:54;97786.38;;;13.98;100.00
29733;BME280;16643;43.158;25.302;2023-05-23T00:16:20;97778.28;;;13.86;100.00
29733;BME280;16643;43.158;25.302;2023-05-23T00:18:45;97800.13;;;14.02;100.00
29733;BME280;16643;43.158;25.302;2023-05-23T00:21:11;97766.66;;;13.91;100.00
29733;BME280;16643;43.158;25.302;2023-05-23T00:23:41;97765.03;;;13.89;100.00
29733;BME280;16643;43.158;25.302;2023-05-23T00:26:10;97765.91;;;13.89;100.00
29733;BME280;16643;43.158;25.302;2023-05-23T00:28:38;97802.59;;;14.05;100.00
29733;BME280;16643;43.158;25.302;2023-05-23T00:31:04;97789.19;;;14.11;100.00
29733;BME280;16643;43.158;25.302;2023-05-23T00:33:30;97773.75;;;14.06;100.00
29733;BME280;16643;43.158;25.302;2023-05-23T00:35:58;97773.50;;;14.11;100.00
29733;BME280;16643;43.158;25.302;2023-05-23T00:38:24;97788.84;;;14.18;100.00
29733;BME280;16643;43.158;25.302;2023-05-23T00:40:54;97805.53;;;14.33;100.00
29733;BME280;16643;43.158;25.302;2023-05-23T00:43:19;97774.66;;;14.23;100.00
29733;BME280;16643;43.158;25.302;2023-05-23T00:45:47;97740.25;;;13.97;100.00
29733;BME280;16643;43.158;25.302;2023-05-23T00:48:13;97795.28;;;14.29;100.00
29733;BME280;16643;43.158;25.302;2023-05-23T00:50:40;97779.06;;;14.22;100.00
29733;BME280;16643;43.158;25.302;2023-05-23T00:53:06;97779.47;;;14.32;100.00
29733;BME280;16643;43.158;25.302;2023-05-23T00:55:32;97788.69;;;14.22;100.00
29733;BME280;16643;43.158;25.302;2023-05-23T00:57:58;97790.94;;;14.46;100.00
29733;BME280;16643;43.158;25.302;2023-05-23T01:00:24;97801.25;;;14.49;100.00
29733;BME280;16643;43.158;25.302;2023-05-23T01:02:50;97781.81;;;14.36;100.00
29733;BME280;16643;43.158;25.302;2023-05-23T01:05:17;97780.78;;;14.40;100.00
29733;BME280;16643;43.158;25.302;2023-05-23T01:07:43;97787.56;;;14.44;100.00
29733;BME280;16643;43.158;25.302;2023-05-23T01:10:09;97789.56;;;14.39;100.00
29733;BME280;16643;43.158;25.302;2023-05-23T01:12:48;97790.19;;;14.44;100.00
29733;BME280;16643;43.158;25.302;2023-05-23T01:15:18;97776.28;;;14.25;100.00
29733;BME280;16643;43.158;25.302;2023-05-23T01:18:01;97794.47;;;14.45;100.00
29733;BME280;16643;43.158;25.302;2023-05-23T01:20:38;97760.69;;;14.24;100.00
29733;BME280;16643;43.158;25.302;2023-05-23T01:26:03;97797.19;;;14.44;100.00
29733;BME280;16643;43.158;25.302;2023-05-23T01:28:42;97801.25;;;14.49;100.00
29733;BME280;16643;43.158;25.302;2023-05-23T01:31:10;97795.06;;;14.33;100.00
29733;BME280;16643;43.158;25.302;2023-05-23T01:33:39;97778.28;;;14.37;100.00
29733;BME280;16643;43.158;25.302;2023-05-23T01:36:05;97793.38;;;14.49;100.00
29733;BME280;16643;43.158;25.302;2023-05-23T01:38:32;97786.97;;;14.38;100.00
29733;BME280;16643;43.158;25.302;2023-05-23T01:40:57;97779.38;;;14.33;100.00
29733;BME280;16643;43.158;25.302;2023-05-23T01:43:23;97789.66;;;14.36;100.00
29733;BME280;16643;43.158;25.302;2023-05-23T01:45:51;97791.63;;;14.33;100.00
29733;BME280;16643;43.158;25.302;2023-05-23T01:48:18;97766.38;;;14.14;100.00
29733;BME280;16643;43.158;25.302;2023-05-23T01:50:45;97788.44;;;14.26;100.00
29733;BME280;16643;43.158;25.302;2023-05-23T01:53:13;97788.06;;;14.16;100.00
29733;BME280;16643;43.158;25.302;2023-05-23T01:55:41;97775.28;;;13.93;100.00
29733;BME280;16643;43.158;25.302;2023-05-23T01:58:07;97775.94;;;13.79;100.00
29733;BME280;16643;43.158;25.302;2023-05-23T02:00:33;97797.19;;;13.91;100.00
29733;BME280;16643;43.158;25.302;2023-05-23T02:02:59;97767.13;;;13.82;100.00
29733;BME280;16643;43.158;25.302;2023-05-23T02:05:25;97769.03;;;13.78;100.00
29733;BME280;16643;43.158;25.302;2023-05-23T02:07:51;97770.06;;;13.76;100.00
29733;BME280;16643;43.158;25.302;2023-05-23T02:10:18;97792.66;;;13.94;100.00
29733;BME280;16643;43.158;25.302;2023-05-23T02:12:43;97780.03;;;13.85;100.00
29733;BME280;16643;43.158;25.302;2023-05-23T02:15:09;97775.81;;;13.82;100.00
29733;BME280;16643;43.158;25.302;2023-05-23T02:17:35;97786.66;;;13.92;100.00
29733;BME280;16643;43.158;25.302;2023-05-23T02:20:01;97784.75;;;13.96;100.00
29733;BME280;16643;43.158;25.302;2023-05-23T02:22:26;97784.81;;;13.94;100.00
29733;BME280;16643;43.158;25.302;2023-05-23T02:24:52;97729.38;;;13.70;100.00
29733;BME280;16643;43.158;25.302;2023-05-23T02:27:18;97802.81;;;14.17;100.00
29733;BME280;16643;43.158;25.302;2023-05-23T02:29:44;97799.44;;;14.15;100.00
29733;BME280;16643;43.158;25.302;2023-05-23T02:32:09;88959.94;;;-142.82;100.00
29733;BME280;16643;43.158;25.302;2023-05-23T02:34:35;97793.75;;;14.25;100.00
29733;BME280;16643;43.158;25.302;2023-05-23T02:37:02;97809.66;;;14.37;100.00
29733;BME280;16643;43.158;25.302;2023-05-23T02:39:31;97795.06;;;14.33;100.00
29733;BME280;16643;43.158;25.302;2023-05-23T02:41:56;97801.81;;;14.37;100.00
29733;BME280;16643;43.158;25.302;2023-05-23T02:44:22;97802.09;;;14.50;100.00
29733;BME280;16643;43.158;25.302;2023-05-23T02:46:47;97796.75;;;14.34;100.00
29733;BME280;16643;43.158;25.302;2023-05-23T02:49:13;97816.34;;;14.44;100.00
29733;BME280;16643;43.158;25.302;2023-05-23T02:51:39;97798.91;;;14.26;100.00
29733;BME280;16643;43.158;25.302;2023-05-23T02:54:04;97772.00;;;14.07;100.00
29733;BME280;16643;43.158;25.302;2023-05-23T02:56:30;97815.44;;;14.27;100.00
29733;BME280;16643;43.158;25.302;2023-05-23T02:58:55;97800.53;;;14.29;100.00
29733;BME280;16643;43.158;25.302;2023-05-23T03:01:21;97818.94;;;14.44;100.00
29733;BME280;16643;43.158;25.302;2023-05-23T03:03:47;97796.66;;;14.36;100.00
29733;BME280;16643;43.158;25.302;2023-05-23T03:06:13;97802.16;;;14.31;100.00
29733;BME280;16643;43.158;25.302;2023-05-23T03:08:42;97813.63;;;14.46;100.00
29733;BME280;16643;43.158;25.302;2023-05-23T03:11:08;97809.56;;;14.40;100.00
29733;BME280;16643;43.158;25.302;2023-05-23T03:13:34;97802.56;;;14.41;100.00
29733;BME280;16643;43.158;25.302;2023-05-23T03:16:00;97808.50;;;14.44;100.00
29733;BME280;16643;43.158;25.302;2023-05-23T03:18:26;97796.84;;;14.50;100.00
29733;BME280;16643;43.158;25.302;2023-05-23T03:20:51;97826.25;;;14.55;100.00
29733;BME280;16643;43.158;25.302;2023-05-23T03:23:17;97822.31;;;14.64;100.00
29733;BME280;16643;43.158;25.302;2023-05-23T03:25:43;97806.91;;;14.58;100.00
29733;BME280;16643;43.158;25.302;2023-05-23T03:28:09;97815.38;;;14.63;100.00
29733;BME280;16643;43.158;25.302;2023-05-23T03:30:36;97824.53;;;14.71;100.00
29733;BME280;16643;43.158;25.302;2023-05-23T03:33:02;97796.63;;;14.55;100.00
29733;BME280;16643;43.158;25.302;2023-05-23T03:35:28;97830.59;;;14.72;100.00
29733;BME280;16643;43.158;25.302;2023-05-23T03:37:54;97845.53;;;14.70;100.00
29733;BME280;16643;43.158;25.302;2023-05-23T03:40:20;97806.38;;;14.68;100.00
29733;BME280;16643;43.158;25.302;2023-05-23T03:42:47;97806.47;;;14.67;100.00
29733;BME280;16643;43.158;25.302;2023-05-23T03:45:16;97794.69;;;14.58;100.00
29733;BME280;16643;43.158;25.302;2023-05-23T03:47:42;97809.69;;;14.72;100.00
29733;BME280;16643;43.158;25.302;2023-05-23T03:50:08;97807.53;;;14.63;100.00
29733;BME280;16643;43.158;25.302;2023-05-23T03:52:34;97807.91;;;14.72;100.00
29733;BME280;16643;43.158;25.302;2023-05-23T03:54:59;97793.75;;;14.59;100.00
29733;BME280;16643;43.158;25.302;2023-05-23T03:57:25;97813.22;;;14.71;100.00
29733;BME280;16643;43.158;25.302;2023-05-23T03:59:51;97783.06;;;14.64;100.00
29733;BME280;16643;43.158;25.302;2023-05-23T04:02:17;97765.31;;;14.53;100.00
29733;BME280;16643;43.158;25.302;2023-05-23T04:04:42;97770.16;;;14.61;100.00
29733;BME280;16643;43.158;25.302;2023-05-23T04:07:08;97828.28;;;15.00;100.00
29733;BME280;16643;43.158;25.302;2023-05-23T04:09:34;97825.25;;;15.08;100.00
29733;BME280;16643;43.158;25.302;2023-05-23T04:11:59;97837.41;;;15.24;100.00
29733;BME280;16643;43.158;25.302;2023-05-23T04:14:25;97840.31;;;15.36;100.00
29733;BME280;16643;43.158;25.302;2023-05-23T04:16:52;97838.66;;;15.35;100.00
29733;BME280;16643;43.158;25.302;2023-05-23T04:19:18;97850.53;;;15.57;100.00
29733;BME280;16643;43.158;25.302;2023-05-23T04:21:43;97840.56;;;15.64;100.00
29733;BME280;16643;43.158;25.302;2023-05-23T04:24:09;97851.53;;;15.86;100.00
29733;BME280;16643;43.158;25.302;2023-05-23T04:26:35;97846.06;;;15.91;100.00
29733;BME280;16643;43.158;25.302;2023-05-23T04:29:02;97840.53;;;15.95;100.00
29733;BME280;16643;43.158;25.302;2023-05-23T04:31:28;97851.25;;;16.07;100.00
29733;BME280;16643;43.158;25.302;2023-05-23T04:33:54;97839.69;;;16.11;100.00
29733;BME280;16643;43.158;25.302;2023-05-23T04:36:20;97853.66;;;16.25;100.00
29733;BME280;16643;43.158;25.302;2023-05-23T04:38:47;97843.47;;;16.21;100.00
29733;BME280;16643;43.158;25.302;2023-05-23T04:41:13;97848.34;;;16.27;100.00
29733;BME280;16643;43.158;25.302;2023-05-23T04:43:41;97878.03;;;16.43;100.00
29733;BME280;16643;43.158;25.302;2023-05-23T04:46:10;97871.66;;;16.63;100.00
29733;BME280;16643;43.158;25.302;2023-05-23T04:48:38;97841.06;;;16.32;100.00
29733;BME280;16643;43.158;25.302;2023-05-23T04:51:04;97881.88;;;16.52;100.00
29733;BME280;16643;43.158;25.302;2023-05-23T04:53:33;97884.44;;;16.53;100.00
29733;BME280;16643;43.158;25.302;2023-05-23T04:55:59;97879.63;;;16.46;100.00
29733;BME280;16643;43.158;25.302;2023-05-23T04:58:25;97864.13;;;16.41;100.00
29733;BME280;16643;43.158;25.302;2023-05-23T05:00:51;97870.63;;;16.50;100.00
29733;BME280;16643;43.158;25.302;2023-05-23T05:03:16;97883.94;;;16.47;100.00
29733;BME280;16643;43.158;25.302;2023-05-23T05:05:42;97868.06;;;16.34;100.00
29733;BME280;16643;43.158;25.302;2023-05-23T05:08:07;97869.75;;;16.35;100.00
29733;BME280;16643;43.158;25.302;2023-05-23T05:10:33;97863.16;;;16.28;100.00
29733;BME280;16643;43.158;25.302;2023-05-23T05:12:59;97855.03;;;16.32;100.00
29733;BME280;16643;43.158;25.302;2023-05-23T05:15:24;97849.94;;;16.29;100.00
29733;BME280;16643;43.158;25.302;2023-05-23T05:17:50;97877.19;;;16.43;100.00
29733;BME280;16643;43.158;25.302;2023-05-23T05:20:16;97871.69;;;16.47;100.00
29733;BME280;16643;43.158;25.302;2023-05-23T05:22:41;97885.09;;;16.57;100.00
29733;BME280;16643;43.158;25.302;2023-05-23T05:25:08;97898.41;;;16.69;100.00
29733;BME280;16643;43.158;25.302;2023-05-23T05:27:35;97889.38;;;16.74;100.00
29733;BME280;16643;43.158;25.302;2023-05-23T05:30:07;97892.69;;;16.77;100.00
29733;BME280;16643;43.158;25.302;2023-05-23T05:32:33;97890.75;;;16.81;100.00
29733;BME280;16643;43.158;25.302;2023-05-23T05:34:59;97894.59;;;16.89;100.00
29733;BME280;16643;43.158;25.302;2023-05-23T05:37:25;97884.78;;;16.93;100.00
29733;BME280;16643;43.158;25.302;2023-05-23T05:39:51;97892.72;;;16.91;100.00
29733;BME280;16643;43.158;25.302;2023-05-23T05:42:19;97870.66;;;16.94;100.00
29733;BME280;16643;43.158;25.302;2023-05-23T05:44:44;97890.97;;;17.06;100.00
29733;BME280;16643;43.158;25.302;2023-05-23T05:47:10;97893.41;;;17.09;100.00
29733;BME280;16643;43.158;25.302;2023-05-23T05:49:35;97897.00;;;17.22;100.00
29733;BME280;16643;43.158;25.302;2023-05-23T05:52:01;97876.63;;;17.12;100.00
29733;BME280;16643;43.158;25.302;2023-05-23T05:54:26;97876.81;;;17.09;100.00
29733;BME280;16643;43.158;25.302;2023-05-23T05:56:53;97903.47;;;17.31;100.00
29733;BME280;16643;43.158;25.302;2023-05-23T06:02:17;97899.53;;;17.52;100.00
29733;BME280;16643;43.158;25.302;2023-05-23T06:04:43;97889.97;;;17.80;100.00
29733;BME280;16643;43.158;25.302;2023-05-23T06:07:11;97889.03;;;18.07;100.00
29733;BME280;16643;43.158;25.302;2023-05-23T06:09:40;97861.41;;;18.14;100.00
29733;BME280;16643;43.158;25.302;2023-05-23T06:12:06;97892.66;;;18.60;100.00
29733;BME280;16643;43.158;25.302;2023-05-23T06:14:31;97883.31;;;18.69;100.00
29733;BME280;16643;43.158;25.302;2023-05-23T06:19:27;97867.81;;;18.77;100.00
29733;BME280;16643;43.158;25.302;2023-05-23T06:21:53;97899.69;;;19.25;100.00
29733;BME280;16643;43.158;25.302;2023-05-23T06:24:20;97907.16;;;19.31;100.00
29733;BME280;16643;43.158;25.302;2023-05-23T06:26:59;97898.53;;;19.41;100.00
29733;BME280;16643;43.158;25.302;2023-05-23T06:32:05;97905.69;;;19.77;100.00
29733;BME280;16643;43.158;25.302;2023-05-23T06:34:31;97885.78;;;19.73;99.64
29733;BME280;16643;43.158;25.302;2023-05-23T06:42:48;97917.56;;;20.32;93.03
29733;BME280;16643;43.158;25.302;2023-05-23T06:47:50;97898.22;;;20.44;95.62
29733;BME280;16643;43.158;25.302;2023-05-23T06:50:16;97920.34;;;20.54;93.27
29733;BME280;16643;43.158;25.302;2023-05-23T06:52:48;97919.06;;;20.60;91.49
29733;BME280;16643;43.158;25.302;2023-05-23T06:55:14;97914.69;;;20.72;91.30
29733;BME280;16643;43.158;25.302;2023-05-23T06:57:43;97911.75;;;20.87;94.04
29733;BME280;16643;43.158;25.302;2023-05-23T07:00:09;97913.09;;;21.04;88.97
29733;BME280;16643;43.158;25.302;2023-05-23T07:05:05;97904.84;;;21.09;85.11
29733;BME280;16643;43.158;25.302;2023-05-23T07:07:31;97900.91;;;21.25;85.73
29733;BME280;16643;43.158;25.302;2023-05-23T07:09:56;97896.25;;;21.40;82.98
29733;BME280;16643;43.158;25.302;2023-05-23T07:12:22;97904.56;;;21.58;87.65
29733;BME280;16643;43.158;25.302;2023-05-23T07:14:48;97909.34;;;21.19;84.83
29733;BME280;16643;43.158;25.302;2023-05-23T07:17:13;97896.53;;;20.43;81.46
29733;BME280;16643;43.158;25.302;2023-05-23T07:19:39;97914.03;;;20.92;85.12
29733;BME280;16643;43.158;25.302;2023-05-23T07:22:05;97894.34;;;21.31;89.08
29733;BME280;16643;43.158;25.302;2023-05-23T07:24:31;97902.75;;;21.47;82.86
29733;BME280;16643;43.158;25.302;2023-05-23T07:26:56;97889.78;;;21.44;88.42
29733;BME280;16643;43.158;25.302;2023-05-23T07:29:22;97910.13;;;21.99;83.95
29733;BME280;16643;43.158;25.302;2023-05-23T07:31:47;97884.56;;;22.21;85.65
29733;BME280;16643;43.158;25.302;2023-05-23T07:34:13;97910.78;;;22.24;80.57
29733;BME280;16643;43.158;25.302;2023-05-23T07:36:38;97901.78;;;22.15;78.94
29733;BME280;16643;43.158;25.302;2023-05-23T07:39:05;97911.91;;;22.10;77.84
29733;BME280;16643;43.158;25.302;2023-05-23T07:41:31;97888.53;;;22.15;81.83
29733;BME280;16643;43.158;25.302;2023-05-23T07:43:57;97893.19;;;22.34;77.71
29733;BME280;16643;43.158;25.302;2023-05-23T07:46:22;97888.66;;;21.91;80.37
29733;BME280;16643;43.158;25.302;2023-05-23T07:51:13;97909.97;;;22.01;77.58
29733;BME280;16643;43.158;25.302;2023-05-23T07:53:39;97905.03;;;22.19;80.98
29733;BME280;16643;43.158;25.302;2023-05-23T07:56:05;97914.19;;;22.03;77.21
29733;BME280;16643;43.158;25.302;2023-05-23T07:58:31;97876.38;;;22.13;79.38
29733;BME280;16643;43.158;25.302;2023-05-23T08:00:57;97879.13;;;22.33;79.56
29733;BME280;16643;43.158;25.302;2023-05-23T08:03:23;97862.34;;;22.44;76.30
29733;BME280;16643;43.158;25.302;2023-05-23T08:05:50;97897.25;;;22.81;72.61
29733;BME280;16643;43.158;25.302;2023-05-23T08:08:15;97877.84;;;22.80;74.44
29733;BME280;16643;43.158;25.302;2023-05-23T08:10:41;97886.09;;;22.98;73.12
29733;BME280;16643;43.158;25.302;2023-05-23T08:13:08;97897.09;;;22.51;73.94
29733;BME280;16643;43.158;25.302;2023-05-23T08:15:34;97872.00;;;22.34;80.13
29733;BME280;16643;43.158;25.302;2023-05-23T08:18:00;97903.09;;;22.64;76.34
29733;BME280;16643;43.158;25.302;2023-05-23T08:20:26;97897.03;;;22.73;75.23
29733;BME280;16643;43.158;25.302;2023-05-23T08:22:59;97901.56;;;22.50;79.39
29733;BME280;16643;43.158;25.302;2023-05-23T08:25:26;97884.72;;;22.83;78.32
29733;BME280;16643;43.158;25.302;2023-05-23T08:27:58;97869.22;;;22.78;80.49
29733;BME280;16643;43.158;25.302;2023-05-23T08:30:25;97881.63;;;22.99;80.80
29733;BME280;16643;43.158;25.302;2023-05-23T08:32:52;97875.34;;;22.36;69.42
29733;BME280;16643;43.158;25.302;2023-05-23T08:35:19;97878.28;;;22.65;76.65
29733;BME280;16643;43.158;25.302;2023-05-23T08:37:46;97867.41;;;22.79;74.65
29733;BME280;16643;43.158;25.302;2023-05-23T08:40:21;97884.91;;;22.59;73.26
29733;BME280;16643;43.158;25.302;2023-05-23T08:42:50;97882.47;;;22.67;78.05
29733;BME280;16643;43.158;25.302;2023-05-23T08:45:16;97887.47;;;22.81;76.41
29733;BME280;16643;43.158;25.302;2023-05-23T08:47:43;97871.41;;;22.62;79.73
29733;BME280;16643;43.158;25.302;2023-05-23T08:50:14;97884.00;;;22.70;78.11
29733;BME280;16643;43.158;25.302;2023-05-23T08:52:56;97884.59;;;22.85;80.18
29733;BME280;16643;43.158;25.302;2023-05-23T08:55:27;97886.78;;;22.79;78.86
29733;BME280;16643;43.158;25.302;2023-05-23T08:57:54;97866.81;;;22.64;78.10
29733;BME280;16643;43.158;25.302;2023-05-23T09:00:20;97846.06;;;22.05;78.52
29733;BME280;16643;43.158;25.302;2023-05-23T09:02:46;97880.78;;;22.77;80.28
29733;BME280;16643;43.158;25.302;2023-05-23T09:05:12;97856.97;;;23.08;77.70
29733;BME280;16643;43.158;25.302;2023-05-23T09:07:39;97886.75;;;23.42;74.35
29733;BME280;16643;43.158;25.302;2023-05-23T09:10:07;97862.91;;;23.21;77.11
29733;BME280;16643;43.158;25.302;2023-05-23T09:12:34;97877.66;;;23.14;84.88
29733;BME280;16643;43.158;25.302;2023-05-23T09:15:01;97879.91;;;23.39;75.93
29733;BME280;16643;43.158;25.302;2023-05-23T09:17:27;97854.47;;;23.37;77.17
29733;BME280;16643;43.158;25.302;2023-05-23T09:19:53;97850.44;;;23.42;74.20
29733;BME280;16643;43.158;25.302;2023-05-23T09:22:27;97887.94;;;23.79;70.56
29733;BME280;16643;43.158;25.302;2023-05-23T09:24:54;97876.16;;;23.72;68.41
29733;BME280;16643;43.158;25.302;2023-05-23T09:27:21;97874.81;;;23.78;71.68
29733;BME280;16643;43.158;25.302;2023-05-23T09:29:49;97884.97;;;23.22;71.66
29733;BME280;16643;43.158;25.302;2023-05-23T09:32:16;97868.09;;;22.70;70.61
29733;BME280;16643;43.158;25.302;2023-05-23T09:34:58;97871.13;;;23.18;74.40
29733;BME280;16643;43.158;25.302;2023-05-23T09:37:44;97884.34;;;23.60;76.33
29733;BME280;16643;43.158;25.302;2023-05-23T09:40:13;97876.34;;;23.29;72.80
29733;BME280;16643;43.158;25.302;2023-05-23T09:42:46;97869.59;;;23.67;68.47
29733;BME280;16643;43.158;25.302;2023-05-23T09:45:13;97866.78;;;23.59;72.49
29733;BME280;16643;43.158;25.302;2023-05-23T09:47:38;97879.47;;;24.05;70.57
29733;BME280;16643;43.158;25.302;2023-05-23T09:50:05;97867.53;;;24.39;72.76
29733;BME280;16643;43.158;25.302;2023-05-23T09:52:35;97880.16;;;24.66;67.31
29733;BME280;16643;43.158;25.302;2023-05-23T09:55:02;97849.22;;;24.65;67.29
29733;BME280;16643;43.158;25.302;2023-05-23T09:57:30;97872.47;;;24.63;66.71
29733;BME280;16643;43.158;25.302;2023-05-23T10:00:00;97846.63;;;24.15;69.75
29733;BME280;16643;43.158;25.302;2023-05-23T10:02:53;97860.72;;;24.56;70.43
29733;BME280;16643;43.158;25.302;2023-05-23T10:05:42;97858.47;;;24.51;69.26
29733;BME280;16643;43.158;25.302;2023-05-23T10:08:33;97842.66;;;24.59;66.53
29733;BME280;16643;43.158;25.302;2023-05-23T10:13:40;97849.66;;;24.32;67.75
29733;BME280;16643;43.158;25.302;2023-05-23T10:16:29;97858.31;;;24.34;66.93
29733;BME280;16643;43.158;25.302;2023-05-23T10:18:58;97856.50;;;24.73;67.24
29733;BME280;16643;43.158;25.302;2023-05-23T10:21:58;97857.06;;;24.67;65.20
29733;BME280;16643;43.158;25.302;2023-05-23T10:24:24;97841.81;;;24.40;67.66
29733;BME280;16643;43.158;25.302;2023-05-23T10:26:52;97852.31;;;24.32;71.54
29733;BME280;16643;43.158;25.302;2023-05-23T10:29:20;97827.69;;;24.39;71.78
29733;BME280;16643;43.158;25.302;2023-05-23T10:31:46;97852.16;;;24.81;64.60
29733;BME280;16643;43.158;25.302;2023-05-23T10:34:35;97830.75;;;25.02;66.81
29733;BME280;16643;43.158;25.302;2023-05-23T10:37:04;97842.00;;;25.33;71.22
29733;BME280;16643;43.158;25.302;2023-05-23T10:39:39;97837.75;;;25.03;63.24
29733;BME280;16643;43.158;25.302;2023-05-23T10:42:18;97845.69;;;25.13;64.32
29733;BME280;16643;43.158;25.302;2023-05-23T10:44:44;97816.84;;;25.08;67.09
29733;BME280;16643;43.158;25.302;2023-05-23T10:47:10;97826.75;;;25.25;60.76
29733;BME280;16643;43.158;25.302;2023-05-23T10:49:42;97819.63;;;25.26;64.45
29733;BME280;16643;43.158;25.302;2023-05-23T10:52:10;97847.22;;;25.25;57.72
29733;BME280;16643;43.158;25.302;2023-05-23T10:54:57;97816.44;;;25.13;63.68
29733;BME280;16643;43.158;25.302;2023-05-23T10:57:25;97830.88;;;24.91;62.06
29733;BME280;16643;43.158;25.302;2023-05-23T10:59:52;97805.72;;;25.32;65.48
29733;BME280;16643;43.158;25.302;2023-05-23T11:02:19;97818.38;;;25.85;67.04
29733;BME280;16643;43.158;25.302;2023-05-23T11:07:45;97817.94;;;25.25;64.79
29733;BME280;16643;43.158;25.302;2023-05-23T11:10:12;97825.53;;;25.10;60.34
29733;BME280;16643;43.158;25.302;2023-05-23T11:12:42;97818.41;;;24.91;59.82
29733;BME280;16643;43.158;25.302;2023-05-23T11:15:19;97821.34;;;24.98;62.92
29733;BME280;16643;43.158;25.302;2023-05-23T11:17:56;97789.19;;;25.28;58.73
29733;BME280;16643;43.158;25.302;2023-05-23T11:20:25;97799.69;;;25.67;57.32
29733;BME280;16643;43.158;25.302;2023-05-23T11:22:59;97805.03;;;26.12;55.74
29733;BME280;16643;43.158;25.302;2023-05-23T11:25:44;97794.28;;;26.04;61.89
29733;BME280;16643;43.158;25.302;2023-05-23T11:28:12;97817.78;;;26.18;60.31
29733;BME280;16643;43.158;25.302;2023-05-23T11:30:39;97783.56;;;26.14;56.92
29733;BME280;16643;43.158;25.302;2023-05-23T11:33:10;97798.28;;;26.35;56.44
29733;BME280;16643;43.158;25.302;2023-05-23T11:35:48;97787.84;;;26.42;56.42
29733;BME280;16643;43.158;25.302;2023-05-23T11:38:14;97814.13;;;26.55;56.01
29733;BME280;16643;43.158;25.302;2023-05-23T11:40:45;97793.94;;;26.34;57.22
29733;BME280;16643;43.158;25.302;2023-05-23T11:43:13;97791.13;;;26.36;50.74
29733;BME280;16643;43.158;25.302;2023-05-23T11:45:41;97800.88;;;26.45;53.29
29733;BME280;16643;43.158;25.302;2023-05-23T11:48:14;97779.84;;;26.07;51.13
29733;BME280;16643;43.158;25.302;2023-05-23T11:50:48;97779.38;;;25.93;52.29
29733;BME280;16643;43.158;25.302;2023-05-23T11:53:14;97732.34;;;25.75;55.33
29733;BME280;16643;43.158;25.302;2023-05-23T11:55:54;97771.69;;;26.26;55.18
29733;BME280;16643;43.158;25.302;2023-05-23T11:58:21;97776.31;;;26.59;52.54
29733;BME280;16643;43.158;25.302;2023-05-23T12:00:47;97760.31;;;26.59;53.01
29733;BME280;16643;43.158;25.302;2023-05-23T12:03:12;97771.84;;;26.42;53.57
29733;BME280;16643;43.158;25.302;2023-05-23T12:05:38;97760.28;;;26.51;52.94
29733;BME280;16643;43.158;25.302;2023-05-23T12:08:04;97752.81;;;26.37;52.56
29733;BME280;16643;43.158;25.302;2023-05-23T12:10:30;97741.16;;;26.38;54.06
29733;BME280;16643;43.158;25.302;2023-05-23T12:12:56;97755.28;;;26.56;53.10
29733;BME280;16643;43.158;25.302;2023-05-23T12:15:25;97765.41;;;26.70;54.53
29733;BME280;16643;43.158;25.302;2023-05-23T12:17:54;97753.31;;;26.58;51.89
29733;BME280;16643;43.158;25.302;2023-05-23T12:20:21;97768.19;;;26.43;54.73
29733;BME280;16643;43.158;25.302;2023-05-23T12:22:47;97760.19;;;26.43;52.21
29733;BME280;16643;43.158;25.302;2023-05-23T12:25:13;97703.97;;;26.19;50.16
29733;BME280;16643;43.158;25.302;2023-05-23T12:27:40;97760.56;;;26.48;48.71
29733;BME280;16643;43.158;25.302;2023-05-23T12:30:08;97757.59;;;26.51;47.55
29733;BME280;16643;43.158;25.302;2023-05-23T12:32:38;97753.22;;;26.68;49.22
29733;BME280;16643;43.158;25.302;2023-05-23T12:35:04;97746.47;;;26.82;49.83
29733;BME280;16643;43.158;25.302;2023-05-23T12:37:30;97749.47;;;27.04;50.78
29733;BME280;16643;43.158;25.302;2023-05-23T12:39:56;97739.91;;;26.94;49.39
29733;BME280;16643;43.158;25.302;2023-05-23T12:42:22;97752.84;;;27.06;49.29
29733;BME280;16643;43.158;25.302;2023-05-23T12:44:52;97753.72;;;27.15;49.24
29733;BME280;16643;43.158;25.302;2023-05-23T12:47:18;97730.47;;;26.82;49.16
29733;BME280;16643;43.158;25.302;2023-05-23T12:49:44;97724.41;;;26.71;47.46
29733;BME280;16643;43.158;25.302;2023-05-23T12:52:11;97707.84;;;26.42;49.88
29733;BME280;16643;43.158;25.302;2023-05-23T12:54:36;97735.22;;;26.70;48.90
29733;BME280;16643;43.158;25.302;2023-05-23T12:57:02;97719.16;;;26.62;47.61
29733;BME280;16643;43.158;25.302;2023-05-23T12:59:28;97692.88;;;26.41;48.39
29733;BME280;16643;43.158;25.302;2023-05-23T13:01:54;97684.53;;;26.09;48.83
29733;BME280;16643;43.158;25.302;2023-05-23T13:04:19;97701.53;;;26.25;49.12
29733;BME280;16643;43.158;25.302;2023-05-23T13:06:45;97697.03;;;26.08;49.36
29733;BME280;16643;43.158;25.302;2023-05-23T13:09:11;97715.56;;;26.27;51.09
29733;BME280;16643;43.158;25.302;2023-05-23T13:11:36;97707.84;;;26.42;48.86
29733;BME280;16643;43.158;25.302;2023-05-23T13:14:02;97681.13;;;26.34;48.00
29733;BME280;16643;43.158;25.302;2023-05-23T13:16:27;97687.66;;;26.22;47.19
29733;BME280;16643;43.158;25.302;2023-05-23T13:18:53;97708.28;;;26.55;48.85